Time;durP1;ratioP1;P1;durP2;ratioP2;P2;SDS_P1;SDS_P2;PMS_P1;PMS_P2;Temp;Humidity;BMP_temperature;BMP_pressure;BME280_temperature;BME280_humidity;BME280_pressure;Samples;Min_cycle;Max_cycle;Signal;HPM_P1;HPM_P2
2023/07/29 00:02:52;;;;;;;15.60;5.63;;;;;;;21.83;100.00;98645.19;5000489;28;20056;-93
2023/07/29 00:05:20;;;;;;;12.85;5.63;;;;;;;21.78;100.00;98636.56;4996315;28;20042;-94
2023/07/29 00:07:47;;;;;;;17.25;5.75;;;;;;;21.71;100.00;98629.91;5000707;28;20041;-94
2023/07/29 00:10:23;;;;;;;14.30;5.53;;;;;;;21.78;100.00;98628.44;4995641;28;20482;-94
2023/07/29 00:12:54;;;;;;;15.88;5.47;;;;;;;21.80;100.00;98631.91;5032503;28;20046;-95
2023/07/29 00:15:20;;;;;;;12.95;5.72;;;;;;;21.80;100.00;98640.03;5000014;28;20046;-94
2023/07/29 00:17:46;;;;;;;19.00;5.82;;;;;;;21.84;100.00;98648.75;5000364;28;20106;-94
2023/07/29 00:20:12;;;;;;;13.13;5.63;;;;;;;21.79;100.00;98627.47;4999169;28;20088;-93
2023/07/29 00:22:37;;;;;;;12.30;5.35;;;;;;;21.78;100.00;98620.34;4998086;28;20041;-94
2023/07/29 00:25:04;;;;;;;12.35;5.70;;;;;;;21.87;100.00;98630.47;4994208;28;20038;-94
2023/07/29 00:27:30;;;;;;;14.43;5.35;;;;;;;21.88;100.00;98631.31;4992944;28;20423;-94
2023/07/29 00:29:57;;;;;;;13.85;6.43;;;;;;;22.00;100.00;98635.81;5003910;28;20038;-92
2023/07/29 00:32:23;;;;;;;14.45;5.72;;;;;;;21.99;100.00;98625.09;4998713;28;20038;-94
2023/07/29 00:34:49;;;;;;;12.40;5.10;;;;;;;21.89;100.00;98605.97;5000552;28;20136;-93
2023/07/29 00:37:14;;;;;;;14.35;5.85;;;;;;;21.93;100.00;98607.47;4995489;28;20034;-95
2023/07/29 00:39:40;;;;;;;14.25;5.78;;;;;;;21.93;100.00;98597.50;4997085;28;20054;-93
2023/07/29 00:42:06;;;;;;;13.10;5.85;;;;;;;22.04;100.00;98618.34;5000102;28;20042;-94
2023/07/29 00:44:32;;;;;;;24.08;8.63;;;;;;;22.07;100.00;98625.38;4996005;28;20039;-95
2023/07/29 00:47:02;;;;;;;15.45;5.82;;;;;;;22.02;100.00;98611.31;4996598;28;20041;-94
2023/07/29 00:49:28;;;;;;;12.60;5.45;;;;;;;21.93;100.00;98612.91;4992940;28;20392;-94
2023/07/29 00:51:55;;;;;;;11.15;5.60;;;;;;;21.78;100.00;98603.22;4999404;28;20042;-93
2023/07/29 00:54:21;;;;;;;15.20;5.78;;;;;;;21.78;100.00;98619.47;4997080;28;20049;-93
2023/07/29 00:56:47;;;;;;;13.40;5.80;;;;;;;21.60;100.00;98622.59;4994367;28;20038;-93
2023/07/29 00:59:13;;;;;;;14.32;5.97;;;;;;;21.51;100.00;98621.44;4999459;28;20034;-93
2023/07/29 01:01:39;;;;;;;14.68;6.20;;;;;;;21.51;100.00;98624.13;4999196;28;20044;-93
2023/07/29 01:04:06;;;;;;;13.48;6.40;;;;;;;21.33;100.00;98622.75;5017080;28;20061;-94
2023/07/29 01:06:41;;;;;;;14.80;5.45;;;;;;;21.42;100.00;98632.06;4999633;28;20563;-94
2023/07/29 01:09:13;;;;;;;16.70;6.15;;;;;;;21.25;100.00;98617.03;5030494;28;20038;-94
2023/07/29 01:11:48;;;;;;;15.55;6.05;;;;;;;21.20;100.00;98624.63;4991176;28;20559;-94
2023/07/29 01:14:29;;;;;;;14.75;6.05;;;;;;;21.16;100.00;98620.41;5029285;28;20042;-93
2023/07/29 01:17:00;;;;;;;12.57;6.03;;;;;;;21.15;100.00;98629.53;4997042;28;20042;-95
2023/07/29 01:19:42;;;;;;;18.50;6.07;;;;;;;21.08;100.00;98629.97;4996190;28;20049;-94
2023/07/29 01:22:10;;;;;;;17.35;7.05;;;;;;;21.04;100.00;98624.88;4996203;28;20141;-93
2023/07/29 01:24:37;;;;;;;14.13;6.13;;;;;;;20.93;100.00;98609.44;4998428;28;20052;-94
2023/07/29 01:27:04;;;;;;;15.43;6.30;;;;;;;20.92;100.00;98622.06;4996591;28;20447;-93
2023/07/29 01:29:30;;;;;;;15.20;6.47;;;;;;;20.86;100.00;98622.53;4994197;28;20042;-93
2023/07/29 01:32:02;;;;;;;15.35;6.72;;;;;;;20.84;100.00;98618.19;4996894;28;20157;-93
2023/07/29 01:34:32;;;;;;;19.38;6.70;;;;;;;20.95;100.00;98628.22;4999134;28;20042;-93
2023/07/29 01:37:02;;;;;;;13.88;6.75;;;;;;;20.90;100.00;98623.16;4999017;28;20053;-93
2023/07/29 01:39:30;;;;;;;19.15;6.70;;;;;;;20.84;100.00;98618.19;4998519;28;20050;-92
2023/07/29 01:41:57;;;;;;;16.65;6.82;;;;;;;20.75;100.00;98608.03;4997406;28;20399;-93
2023/07/29 01:44:23;;;;;;;19.30;5.97;;;;;;;20.77;100.00;98616.91;4997033;28;20069;-93
2023/07/29 01:46:50;;;;;;;16.00;6.03;;;;;;;20.72;100.00;98604.59;4997124;28;20444;-94
2023/07/29 01:49:15;;;;;;;15.73;6.90;;;;;;;20.75;100.00;98621.56;4996401;28;20053;-93
2023/07/29 01:51:41;;;;;;;20.92;6.72;;;;;;;20.65;100.00;98616.81;4997137;28;20041;-93
2023/07/29 01:54:07;;;;;;;15.98;6.78;;;;;;;20.60;100.00;98627.09;4996075;28;20133;-94
2023/07/29 01:56:33;;;;;;;19.33;6.88;;;;;;;20.49;100.00;98608.00;4998001;28;20105;-94
2023/07/29 01:59:00;;;;;;;16.50;5.97;;;;;;;20.48;100.00;98612.56;5015120;28;20093;-94
2023/07/29 02:01:26;;;;;;;18.17;7.15;;;;;;;20.41;100.00;98605.00;4998717;28;20132;-94
2023/07/29 02:03:55;;;;;;;17.60;6.88;;;;;;;20.26;100.00;98591.59;4997712;28;20133;-94
2023/07/29 02:06:20;;;;;;;;;;;;;;;20.37;100.00;98627.81;4986276;28;20046;-94
2023/07/29 02:08:46;;;;;;;17.20;7.22;;;;;;;20.11;100.00;98596.22;4992658;28;20362;-93
2023/07/29 02:11:12;;;;;;;15.82;7.68;;;;;;;20.10;100.00;98626.91;4995159;28;20472;-94
2023/07/29 02:13:38;;;;;;;23.02;7.72;;;;;;;19.98;100.00;98611.53;4996808;28;20049;-93
2023/07/29 02:16:05;;;;;;;17.40;8.10;;;;;;;19.96;100.00;98605.38;4997625;28;20092;-94
2023/07/29 02:18:31;;;;;;;19.92;7.82;;;;;;;20.02;100.00;98609.50;4998234;28;20038;-95
2023/07/29 02:20:57;;;;;;;18.70;7.38;;;;;;;19.93;100.00;98613.69;4996826;28;20044;-94
2023/07/29 02:23:23;;;;;;;16.83;8.93;;;;;;;19.89;100.00;98606.78;4998256;28;20084;-94
2023/07/29 02:25:50;;;;;;;17.75;8.23;;;;;;;19.89;100.00;98623.81;4992765;28;20041;-93
2023/07/29 02:28:17;;;;;;;17.52;8.07;;;;;;;19.83;100.00;98608.03;4998049;28;20125;-93
2023/07/29 02:30:44;;;;;;;17.98;8.20;;;;;;;19.84;100.00;98608.88;4996263;28;20500;-95
2023/07/29 02:33:12;;;;;;;20.08;8.23;;;;;;;19.76;100.00;98595.09;4995489;28;20134;-94
2023/07/29 02:35:37;;;;;;;18.70;7.72;;;;;;;19.86;100.00;98618.63;4995077;28;20096;-93
2023/07/29 02:38:03;;;;;;;20.63;8.15;;;;;;;19.80;100.00;98615.47;4994414;28;20034;-94
2023/07/29 02:40:29;;;;;;;28.13;9.45;;;;;;;19.78;100.00;98612.88;4998072;28;20060;-93
2023/07/29 02:42:55;;;;;;;21.25;9.07;;;;;;;19.68;100.00;98593.72;4996573;28;20018;-94
2023/07/29 02:45:21;;;;;;;22.73;9.75;;;;;;;19.82;100.00;98613.53;4993472;28;20959;-93
2023/07/29 02:47:46;;;;;;;28.15;9.50;;;;;;;19.82;100.00;98614.41;5009477;28;20041;-93
2023/07/29 02:50:14;;;;;;;20.00;8.52;;;;;;;19.82;100.00;98622.50;4993917;28;20066;-93
2023/07/29 02:52:40;;;;;;;25.17;9.63;;;;;;;19.79;100.00;98613.75;4983575;28;20046;-93
2023/07/29 02:55:06;;;;;;;20.13;9.52;;;;;;;19.81;100.00;98618.06;4996588;28;20054;-93
2023/07/29 02:57:32;;;;;;;18.30;9.35;;;;;;;19.74;100.00;98600.56;4993005;28;20034;-93
2023/07/29 02:59:58;;;;;;;17.67;8.27;;;;;;;19.78;100.00;98606.59;4995135;28;20083;-93
2023/07/29 03:02:24;;;;;;;20.40;8.05;;;;;;;19.82;100.00;98609.03;4991771;28;20041;-94
2023/07/29 03:04:50;;;;;;;17.33;7.97;;;;;;;19.97;100.00;98633.22;4988739;28;20048;-94
2023/07/29 03:07:17;;;;;;;22.25;8.30;;;;;;;19.93;100.00;98612.81;4998083;28;20046;-94
2023/07/29 03:09:44;;;;;;;23.42;8.75;;;;;;;20.07;100.00;98626.22;4997875;28;20132;-92
2023/07/29 03:12:10;;;;;;;18.48;8.25;;;;;;;20.04;100.00;98607.56;4982131;28;20489;-94
2023/07/29 03:14:35;;;;;;;19.48;8.45;;;;;;;20.02;100.00;98609.50;4997960;28;20085;-94
2023/07/29 03:17:04;;;;;;;19.45;8.23;;;;;;;20.09;100.00;98621.59;4997902;28;20040;-92
2023/07/29 03:19:30;;;;;;;17.57;8.20;;;;;;;20.06;100.00;98622.69;4992537;28;20038;-93
2023/07/29 03:21:55;;;;;;;17.00;7.85;;;;;;;20.01;100.00;98613.16;4998450;28;20033;-93
2023/07/29 03:24:23;;;;;;;24.95;8.65;;;;;;;19.93;100.00;98605.59;4994276;28;20042;-94
2023/07/29 03:26:48;;;;;;;18.48;7.97;;;;;;;19.97;100.00;98627.81;4993492;28;20522;-92
2023/07/29 03:29:14;;;;;;;20.50;7.97;;;;;;;19.85;100.00;98618.75;4997870;28;20050;-93
2023/07/29 03:31:40;;;;;;;15.27;7.55;;;;;;;19.79;100.00;98621.84;4997556;28;20054;-92
2023/07/29 03:34:06;;;;;;;21.25;8.32;;;;;;;19.81;100.00;98631.56;4997615;28;20048;-93
2023/07/29 03:36:32;;;;;;;24.23;8.57;;;;;;;19.80;100.00;98632.53;5002028;28;20259;-94
2023/07/29 03:38:58;;;;;;;18.00;8.18;;;;;;;19.87;100.00;98647.34;5019279;28;20045;-93
2023/07/29 03:41:25;;;;;;;17.67;7.82;;;;;;;19.86;100.00;98655.53;5037560;28;20128;-93
2023/07/29 03:43:51;;;;;;;16.60;8.55;;;;;;;19.71;100.00;98635.84;5019824;28;20109;-93
2023/07/29 03:46:19;;;;;;;20.63;8.65;;;;;;;19.75;100.00;98655.38;5016879;28;20065;-94
2023/07/29 03:48:45;;;;;;;17.63;7.80;;;;;;;19.66;100.00;98638.81;5021349;28;20517;-93
2023/07/29 03:51:11;;;;;;;22.23;8.32;;;;;;;19.72;100.00;98653.75;5021335;28;20132;-92
2023/07/29 03:53:37;;;;;;;20.45;7.43;;;;;;;19.76;100.00;98657.13;5020224;28;20065;-92
2023/07/29 03:56:03;;;;;;;14.52;8.25;;;;;;;19.60;100.00;98657.22;5019821;28;20053;-93
2023/07/29 03:58:30;;;;;;;19.50;7.97;;;;;;;19.39;100.00;98636.13;5018199;28;20037;-94
2023/07/29 04:00:56;;;;;;;20.98;7.63;;;;;;;19.44;100.00;98650.16;5013878;28;20025;-94
2023/07/29 04:03:21;;;;;;;19.25;7.60;;;;;;;19.37;100.00;98635.34;5021166;28;20491;-94
2023/07/29 04:05:47;;;;;;;14.63;7.13;;;;;;;19.35;100.00;98631.03;5014759;28;20410;-93
2023/07/29 04:08:13;;;;;;;22.75;6.97;;;;;;;19.35;100.00;98636.41;5020131;28;20041;-93
2023/07/29 04:10:39;;;;;;;16.88;7.55;;;;;;;19.31;100.00;98646.53;5020917;28;20029;-93
2023/07/29 04:13:05;;;;;;;20.70;8.43;;;;;;;19.23;100.00;98629.97;5018207;28;20038;-94
2023/07/29 04:15:32;;;;;;;15.43;7.72;;;;;;;19.43;100.00;98656.53;5013736;28;20046;-92
2023/07/29 04:17:58;;;;;;;23.70;8.70;;;;;;;19.32;100.00;98650.94;5013982;28;20514;-93
2023/07/29 04:20:24;;;;;;;17.73;7.95;;;;;;;19.30;100.00;98639.41;5020675;28;20045;-93
2023/07/29 04:22:50;;;;;;;15.88;8.27;;;;;;;19.45;100.00;98673.47;5019645;28;20041;-95
2023/07/29 04:25:16;;;;;;;23.90;8.43;;;;;;;19.45;100.00;98670.78;5019039;28;20048;-93
2023/07/29 04:27:42;;;;;;;19.88;7.75;;;;;;;19.39;100.00;98654.13;5007833;28;20486;-95
2023/07/29 04:30:08;;;;;;;20.27;9.20;;;;;;;19.48;100.00;98667.00;5016942;28;20089;-95
2023/07/29 04:32:36;;;;;;;18.30;8.23;;;;;;;19.60;100.00;98676.09;5015996;28;20518;-93
2023/07/29 04:35:01;;;;;;;16.80;7.70;;;;;;;19.70;100.00;98669.19;5013288;28;20045;-93
2023/07/29 04:37:27;;;;;;;19.70;8.88;;;;;;;19.70;100.00;98667.34;5020609;28;20046;-94
2023/07/29 04:39:53;;;;;;;18.15;8.05;;;;;;;19.70;100.00;98667.34;5035375;28;20459;-93
2023/07/29 04:42:19;;;;;;;22.35;9.07;;;;;;;19.76;100.00;98671.47;5019980;28;20492;-93
2023/07/29 04:44:45;;;;;;;20.65;9.05;;;;;;;19.78;100.00;98663.25;5015999;28;20042;-95
2023/07/29 04:47:11;;;;;;;26.05;9.00;;;;;;;19.92;100.00;98670.47;5019909;28;20044;-93
2023/07/29 04:49:38;;;;;;;26.70;8.77;;;;;;;19.99;100.00;98666.38;5015670;28;20049;-92
2023/07/29 04:52:04;;;;;;;20.77;9.13;;;;;;;20.03;100.00;98655.25;5033114;28;20395;-95
2023/07/29 04:54:30;;;;;;;25.70;9.60;;;;;;;20.02;100.00;98644.59;5010356;28;20042;-94
2023/07/29 04:56:56;;;;;;;18.02;9.80;;;;;;;20.14;100.00;98650.97;5010780;28;20068;-94
2023/07/29 04:59:22;;;;;;;20.33;8.80;;;;;;;20.21;100.00;98657.69;5019810;28;20069;-93
2023/07/29 05:01:48;;;;;;;25.42;9.35;;;;;;;20.24;100.00;98647.53;5019379;28;20042;-94
2023/07/29 05:04:14;;;;;;;20.30;9.35;;;;;;;20.39;100.00;98661.81;5018990;28;20128;-93
2023/07/29 05:06:41;;;;;;;20.33;8.70;;;;;;;20.56;100.00;98670.56;5019592;28;20506;-93
2023/07/29 05:09:14;;;;;;;20.33;9.50;;;;;;;20.76;100.00;98663.84;5017258;28;20045;-95
2023/07/29 05:11:40;;;;;;;25.80;9.02;;;;;;;20.91;100.00;98665.44;5019394;28;20046;-94
2023/07/29 05:14:06;;;;;;;22.70;9.02;;;;;;;21.31;100.00;98657.16;5019508;28;20041;-93
2023/07/29 05:16:32;;;;;;;28.02;9.00;;;;;;;21.76;100.00;98660.19;5018804;28;20120;-93
2023/07/29 05:18:57;;;;;;;17.95;9.00;;;;;;;22.12;100.00;98661.97;5012530;28;20041;-95
2023/07/29 05:21:23;;;;;;;19.17;9.07;;;;;;;22.25;100.00;98666.44;5016546;28;20519;-93
2023/07/29 05:23:51;;;;;;;22.45;8.77;;;;;;;22.43;100.00;98656.91;5015831;28;20038;-92
2023/07/29 05:26:17;;;;;;;27.75;9.98;;;;;;;22.27;100.00;98680.75;5018898;28;20041;-92
2023/07/29 05:28:42;;;;;;;22.95;9.02;;;;;;;21.70;100.00;98685.00;5019029;28;20048;-93
2023/07/29 05:31:08;;;;;;;27.42;9.60;;;;;;;21.69;100.00;98658.94;5019223;28;20498;-93
2023/07/29 05:33:36;;;;;;;21.92;9.43;;;;;;;21.49;100.00;98669.38;5019061;28;20045;-94
2023/07/29 05:36:02;;;;;;;23.95;9.05;;;;;;;21.37;100.00;98664.81;5019066;28;20033;-93
2023/07/29 05:38:27;;;;;;;21.77;8.88;;;;;;;21.73;100.00;98663.13;5035271;28;20030;-93
2023/07/29 05:40:55;;;;;;;25.17;9.48;;;;;;;22.23;100.00;98663.88;5030839;28;20045;-93
2023/07/29 05:43:21;;;;;;;19.73;9.32;;;;;;;22.48;100.00;98651.13;5010479;28;20038;-93
2023/07/29 05:45:46;;;;;;;18.40;8.48;;;;;;;22.77;100.00;98649.72;5016931;28;20109;-94
2023/07/29 05:48:12;;;;;;;23.88;9.07;;;;;;;23.15;100.00;98678.34;5014741;28;20754;-94
2023/07/29 05:50:38;;;;;;;23.38;8.10;;;;;;;23.59;100.00;98670.28;5018936;28;20034;-92
2023/07/29 05:53:04;;;;;;;20.75;8.55;;;;;;;23.71;100.00;98663.00;5035611;28;20096;-93
2023/07/29 05:55:30;;;;;;;22.58;8.60;;;;;;;23.27;100.00;98675.63;5017682;28;20136;-94
2023/07/29 05:57:57;;;;;;;22.42;8.48;;;;;;;23.43;100.00;98678.84;5012540;28;20034;-95
2023/07/29 06:00:23;;;;;;;26.23;9.10;;;;;;;23.27;100.00;98681.06;5018394;28;20052;-94
2023/07/29 06:02:49;;;;;;;23.60;8.43;;;;;;;23.42;100.00;98671.69;5017418;28;20033;-92
2023/07/29 06:05:15;;;;;;;18.80;7.90;;;;;;;23.53;100.00;98668.09;5018091;28;20137;-94
2023/07/29 06:07:43;;;;;;;17.65;7.95;;;;;;;23.59;100.00;98659.44;5019080;28;20072;-94
2023/07/29 06:10:11;;;;;;;16.38;8.05;;;;;;;23.77;100.00;98665.25;5018606;28;20124;-94
2023/07/29 06:12:37;;;;;;;22.10;8.20;;;;;;;23.79;100.00;98671.41;5018559;28;20041;-93
2023/07/29 06:15:05;;;;;;;15.45;7.47;;;;;;;23.93;100.00;98679.25;5014113;28;20125;-94
2023/07/29 06:17:31;;;;;;;19.60;7.57;;;;;;;24.29;100.00;98671.72;5034655;28;20083;-93
2023/07/29 06:19:57;;;;;;;20.00;7.50;;;;;;;24.28;100.00;98658.25;5020841;28;20049;-95
2023/07/29 06:22:23;;;;;;;30.80;12.35;;;;;;;24.36;100.00;98678.34;5019880;28;20049;-94
2023/07/29 06:24:49;;;;;;;20.02;8.23;;;;;;;24.48;100.00;98656.53;5019307;28;20042;-94
2023/07/29 06:27:15;;;;;;;17.88;7.43;;;;;;;24.65;100.00;98666.84;5013881;28;20064;-94
2023/07/29 06:29:40;;;;;;;17.70;7.32;;;;;;;24.88;100.00;98674.88;5017878;28;20052;-94
2023/07/29 06:32:08;;;;;;;16.25;7.55;;;;;;;24.84;97.47;98673.41;5017774;28;20128;-94
2023/07/29 06:34:34;;;;;;;18.00;8.27;;;;;;;25.11;97.86;98678.25;5018772;28;20053;-94
2023/07/29 06:37:00;;;;;;;22.98;8.95;;;;;;;25.11;97.72;98668.28;5018657;28;20030;-95
2023/07/29 06:39:25;;;;;;;29.77;12.93;;;;;;;25.02;98.66;98678.06;5006620;28;20136;-96
2023/07/29 06:41:51;;;;;;;23.10;11.30;;;;;;;25.05;98.22;98667.91;5014540;28;20048;-94
2023/07/29 06:44:17;;;;;;;23.50;9.70;;;;;;;25.15;97.83;98680.56;5017814;28;20041;-94
2023/07/29 06:46:43;;;;;;;15.20;7.85;;;;;;;25.09;96.37;98664.81;5018892;28;20111;-95
2023/07/29 06:49:10;;;;;;;16.60;7.18;;;;;;;25.13;96.22;98677.13;5018702;28;20041;-93
2023/07/29 06:51:36;;;;;;;17.17;6.82;;;;;;;25.13;95.00;98685.28;5018083;28;20041;-93
2023/07/29 06:54:02;;;;;;;15.98;7.47;;;;;;;25.20;96.28;98674.78;5015245;28;20063;-94
2023/07/29 06:56:29;;;;;;;17.33;7.63;;;;;;;25.33;94.35;98683.56;5008291;28;20046;-93
2023/07/29 06:58:54;;;;;;;20.65;8.45;;;;;;;25.39;95.44;98676.69;5018016;28;20445;-94
2023/07/29 07:01:20;;;;;;;19.50;8.38;;;;;;;25.42;95.63;98658.25;5017337;28;20041;-95
2023/07/29 07:03:46;;;;;;;17.40;7.65;;;;;;;25.68;94.05;98673.22;5017841;28;20045;-95
2023/07/29 07:06:13;;;;;;;20.85;8.15;;;;;;;25.29;94.21;98662.22;5017654;28;20090;-94
2023/07/29 07:08:43;;;;;;;18.17;7.53;;;;;;;25.38;96.16;98686.72;5019314;28;20072;-95
2023/07/29 07:11:09;;;;;;;18.95;7.50;;;;;;;25.58;95.12;98674.03;5023054;28;20112;-95
2023/07/29 07:13:36;;;;;;;16.50;7.40;;;;;;;25.67;93.86;98644.25;5026394;28;20061;-96
2023/07/29 07:16:04;;;;;;;19.15;7.97;;;;;;;25.88;93.10;98646.88;5032674;28;20036;-94
2023/07/29 07:18:30;;;;;;;18.20;7.40;;;;;;;25.87;92.26;98642.41;5028442;28;20064;-93
2023/07/29 07:20:59;;;;;;;23.00;7.75;;;;;;;25.74;93.14;98645.41;5030114;28;20049;-95
2023/07/29 07:23:27;;;;;;;16.63;7.50;;;;;;;25.64;93.88;98663.59;5062805;28;20053;-94
2023/07/29 07:25:53;;;;;;;16.60;7.13;;;;;;;25.65;94.30;98651.69;5032136;28;20057;-94
2023/07/29 07:28:19;;;;;;;15.07;7.10;;;;;;;25.65;95.65;98657.16;5032934;28;20282;-94
2023/07/29 07:30:45;;;;;;;23.92;7.80;;;;;;;25.93;94.98;98645.47;5032920;28;20061;-95
2023/07/29 07:33:12;;;;;;;14.68;6.97;;;;;;;26.19;92.27;98639.44;5032360;28;20042;-95
2023/07/29 07:35:38;;;;;;;16.08;7.10;;;;;;;26.50;90.81;98664.69;5029673;28;20069;-95
2023/07/29 07:38:04;;;;;;;14.43;7.72;;;;;;;26.54;90.82;98637.97;5033731;28;20041;-94
2023/07/29 07:40:32;;;;;;;18.33;8.00;;;;;;;26.19;90.23;98628.56;5064945;28;20077;-96
2023/07/29 07:42:58;;;;;;;15.50;7.22;;;;;;;26.34;89.86;98635.28;5032267;28;20041;-95
2023/07/29 07:45:24;;;;;;;14.30;7.03;;;;;;;26.71;90.19;98658.22;5028489;28;20140;-93
2023/07/29 07:47:51;;;;;;;14.73;7.30;;;;;;;26.51;89.91;98665.56;5026924;28;20049;-94
2023/07/29 07:50:17;;;;;;;14.50;6.60;;;;;;;26.19;92.57;98661.25;5022337;28;20038;-94
2023/07/29 07:52:43;;;;;;;18.88;7.28;;;;;;;26.44;91.42;98659.81;5020979;28;20823;-94
2023/07/29 07:55:09;;;;;;;15.05;7.57;;;;;;;26.22;91.09;98661.00;5020810;28;20128;-94
2023/07/29 07:57:36;;;;;;;14.43;6.88;;;;;;;26.05;93.24;98645.34;5021312;28;20042;-94
2023/07/29 08:00:04;;;;;;;21.20;7.70;;;;;;;26.68;90.71;98662.13;5003571;28;20456;-94
2023/07/29 08:02:33;;;;;;;15.32;7.18;;;;;;;26.44;89.29;98647.03;5007348;28;20133;-92
2023/07/29 08:04:59;;;;;;;16.00;7.03;;;;;;;26.35;89.19;98645.19;5018319;28;20510;-93
2023/07/29 08:07:25;;;;;;;19.83;7.22;;;;;;;26.33;89.00;98646.34;5023027;28;20053;-93
2023/07/29 08:09:50;;;;;;;36.97;9.20;;;;;;;26.40;90.07;98653.78;5017020;28;20088;-93
2023/07/29 08:12:16;;;;;;;19.33;7.70;;;;;;;26.74;88.71;98639.72;5017757;28;20064;-93
2023/07/29 08:14:43;;;;;;;20.38;7.50;;;;;;;26.99;88.96;98637.31;5016092;28;20072;-93
2023/07/29 08:17:09;;;;;;;11.57;5.93;;;;;;;27.30;86.82;98648.84;5023596;28;20132;-92
2023/07/29 08:19:37;;;;;;;14.23;6.90;;;;;;;27.56;86.62;98654.47;5016425;28;20125;-92
2023/07/29 08:22:03;;;;;;;14.68;7.05;;;;;;;27.50;84.42;98654.22;5018010;28;20103;-93
2023/07/29 08:24:29;;;;;;;19.08;7.10;;;;;;;27.78;85.33;98657.78;5012015;28;20038;-93
2023/07/29 08:26:55;;;;;;;16.58;6.70;;;;;;;27.96;82.13;98642.31;5022448;28;20074;-95
2023/07/29 08:29:21;;;;;;;11.93;6.80;;;;;;;28.08;83.69;98662.06;5021730;28;20136;-93
2023/07/29 08:31:50;;;;;;;14.90;7.15;;;;;;;28.24;80.99;98639.50;5012009;28;20388;-94
2023/07/29 08:34:16;;;;;;;18.67;7.28;;;;;;;28.46;80.20;98639.00;5009350;28;20037;-94
2023/07/29 08:36:42;;;;;;;17.02;6.80;;;;;;;27.03;84.20;98622.38;5016254;28;20037;-92
2023/07/29 08:39:08;;;;;;;19.23;7.38;;;;;;;27.29;84.79;98625.31;5019658;28;20491;-92
2023/07/29 08:41:41;;;;;;;12.60;6.28;;;;;;;27.66;84.62;98625.22;5021768;28;20073;-94
2023/07/29 08:44:12;;;;;;;14.80;7.32;;;;;;;28.09;81.47;98628.28;5021690;28;20038;-94
2023/07/29 08:46:39;;;;;;;21.70;7.47;;;;;;;28.55;81.45;98636.38;5017291;28;20044;-93
2023/07/29 08:49:07;;;;;;;13.30;6.80;;;;;;;28.70;79.84;98623.81;5020207;28;20045;-93
2023/07/29 08:51:34;;;;;;;18.17;6.90;;;;;;;28.76;77.99;98625.94;5020643;28;20041;-93
2023/07/29 08:54:01;;;;;;;17.38;8.35;;;;;;;28.72;77.92;98612.72;5037007;28;20049;-93
2023/07/29 08:56:27;;;;;;;17.15;6.60;;;;;;;28.60;79.09;98639.47;5009657;28;20523;-95
2023/07/29 08:58:54;;;;;;;16.48;6.80;;;;;;;28.58;79.34;98633.31;5000309;28;20049;-94
2023/07/29 09:01:20;;;;;;;13.00;6.63;;;;;;;28.83;80.51;98637.09;5010688;28;20034;-93
2023/07/29 09:03:46;;;;;;;12.93;6.90;;;;;;;28.76;78.26;98623.19;5011780;28;20057;-94
2023/07/29 09:06:14;;;;;;;11.80;7.03;;;;;;;29.04;77.75;98631.22;5020636;28;20525;-94
2023/07/29 09:08:40;;;;;;;15.13;7.03;;;;;;;29.12;77.69;98601.16;5018917;28;20037;-93
2023/07/29 09:11:07;;;;;;;12.38;6.30;;;;;;;29.29;76.47;98626.75;5021334;28;20095;-94
2023/07/29 09:13:33;;;;;;;15.80;7.05;;;;;;;29.60;74.67;98616.09;5017383;28;20041;-93
2023/07/29 09:15:59;;;;;;;14.93;7.18;;;;;;;29.68;74.71;98610.63;5017952;28;20045;-92
2023/07/29 09:18:27;;;;;;;13.20;6.55;;;;;;;29.59;74.24;98610.78;5018631;28;20191;-96
2023/07/29 09:20:53;;;;;;;14.77;6.82;;;;;;;29.72;74.51;98613.06;5018141;28;20044;-94
2023/07/29 09:23:20;;;;;;;13.48;6.18;;;;;;;29.87;73.23;98600.44;5010350;28;20042;-94
2023/07/29 09:25:47;;;;;;;11.68;6.57;;;;;;;30.29;71.60;98622.25;4999191;28;20041;-92
2023/07/29 09:28:14;;;;;;;13.80;6.60;;;;;;;30.12;68.57;98592.22;5015108;28;20037;-94
2023/07/29 09:30:42;;;;;;;13.60;7.00;;;;;;;30.41;69.62;98609.06;5013779;28;20516;-93
2023/07/29 09:33:08;;;;;;;15.15;7.13;;;;;;;30.53;59.23;98611.44;5015338;28;20051;-93
2023/07/29 09:35:35;;;;;;;13.02;6.60;;;;;;;29.18;60.72;98611.47;5018265;28;20049;-94
2023/07/29 09:38:01;;;;;;;14.60;6.88;;;;;;;28.97;65.42;98617.31;5014410;28;20046;-93
2023/07/29 09:40:35;;;;;;;11.95;6.43;;;;;;;29.54;59.29;98614.03;4999559;28;20141;-93
2023/07/29 09:43:01;;;;;;;14.80;6.15;;;;;;;29.96;59.25;98598.56;5027310;28;20044;-93
2023/07/29 09:45:27;;;;;;;12.88;6.18;;;;;;;30.42;57.76;98627.22;4998463;28;20141;-93
2023/07/29 09:47:56;;;;;;;11.68;6.05;;;;;;;30.65;56.39;98601.84;4993993;28;20038;-94
2023/07/29 09:50:24;;;;;;;11.73;5.57;;;;;;;30.52;57.14;98627.06;4995186;28;20064;-94
2023/07/29 09:52:52;;;;;;;13.00;6.47;;;;;;;29.66;59.08;98614.56;4996254;28;20129;-93
2023/07/29 09:55:18;;;;;;;;;;;;;;;29.78;58.14;98626.97;5010945;28;20045;-94
2023/07/29 09:57:46;;;;;;;12.18;7.00;;;;;;;29.83;57.88;98604.53;4997531;28;19925;-92
2023/07/29 10:00:12;;;;;;;16.25;7.55;;;;;;;29.58;57.12;98615.41;4996752;28;20069;-93
2023/07/29 10:02:40;;;;;;;12.43;6.50;;;;;;;29.76;58.38;98601.59;4998341;28;20063;-92
2023/07/29 10:05:07;;;;;;;13.32;6.63;;;;;;;30.21;57.21;98611.25;4994171;28;20037;-95
2023/07/29 10:07:34;;;;;;;11.20;6.40;;;;;;;30.56;55.03;98606.47;4993256;28;20046;-93
2023/07/29 10:10:03;;;;;;;11.80;6.28;;;;;;;30.49;55.32;98600.81;4994908;28;20084;-93
2023/07/29 10:12:30;;;;;;;12.40;6.68;;;;;;;29.24;58.50;98616.28;4993350;28;20382;-93
2023/07/29 10:14:59;;;;;;;10.18;6.38;;;;;;;28.77;59.53;98596.69;4998365;28;20049;-94
2023/07/29 10:17:27;;;;;;;11.55;6.55;;;;;;;28.03;63.04;98596.94;4996826;28;20531;-92
2023/07/29 10:19:56;;;;;;;15.85;6.03;;;;;;;28.62;60.56;98596.41;4997501;28;20124;-94
2023/07/29 10:22:26;;;;;;;12.63;5.75;;;;;;;29.20;58.23;98614.06;4998331;28;20077;-94
2023/07/29 10:24:54;;;;;;;12.05;6.55;;;;;;;29.52;58.77;98596.88;4996257;28;20045;-92
2023/07/29 10:27:21;;;;;;;12.33;5.70;;;;;;;30.25;56.85;98603.53;4997560;28;20213;-94
2023/07/29 10:29:49;;;;;;;12.50;5.77;;;;;;;29.79;55.17;98600.41;4997563;28;20064;-93
2023/07/29 10:32:16;;;;;;;13.68;6.20;;;;;;;30.18;56.68;98586.91;4993070;28;20045;-93
2023/07/29 10:34:43;;;;;;;29.02;6.40;;;;;;;30.91;52.52;98586.00;5016704;28;20041;-95
2023/07/29 10:37:09;;;;;;;11.63;5.68;;;;;;;31.50;51.01;98593.88;4997567;28;20057;-92
2023/07/29 10:39:39;;;;;;;10.48;6.53;;;;;;;31.81;47.50;98578.41;4999923;28;20137;-95
2023/07/29 10:42:07;;;;;;;12.68;5.70;;;;;;;31.71;46.02;98593.25;4994552;28;20042;-94
2023/07/29 10:44:49;;;;;;;11.32;5.63;;;;;;;31.92;46.11;98581.59;4994552;28;20099;-94
2023/07/29 10:47:18;;;;;;;14.60;6.20;;;;;;;32.07;46.17;98584.41;4982850;28;20046;-94
2023/07/29 10:49:45;;;;;;;11.93;5.55;;;;;;;31.47;45.35;98599.75;4996069;28;20119;-95
2023/07/29 10:52:14;;;;;;;9.45;5.55;;;;;;;30.62;47.37;98577.47;4995299;28;20042;-92
2023/07/29 10:54:42;;;;;;;10.50;5.38;;;;;;;30.89;49.92;98589.97;4999041;28;20053;-92
2023/07/29 10:57:13;;;;;;;12.20;6.00;;;;;;;31.40;47.73;98579.44;4998020;28;20022;-93
2023/07/29 10:59:39;;;;;;;8.45;5.75;;;;;;;31.60;47.22;98581.78;4996620;28;20064;-93
2023/07/29 11:02:15;;;;;;;17.05;5.97;;;;;;;31.32;45.24;98585.00;4993975;28;20038;-93
2023/07/29 11:04:50;;;;;;;9.85;5.05;;;;;;;31.55;44.08;98585.09;4994660;28;20149;-93
2023/07/29 11:07:23;;;;;;;11.52;5.07;;;;;;;31.73;45.95;98571.06;4989839;28;20038;-92
2023/07/29 11:10:00;;;;;;;12.32;6.03;;;;;;;31.80;45.01;98577.56;4996592;28;20125;-93
2023/07/29 11:12:45;;;;;;;12.35;5.45;;;;;;;31.79;44.79;98583.22;4990526;28;20052;-93
2023/07/29 11:15:17;;;;;;;9.13;4.97;;;;;;;31.83;43.79;98576.31;4994207;28;20052;-94
2023/07/29 11:17:45;;;;;;;10.68;5.15;;;;;;;32.02;44.45;98558.53;4996305;28;20168;-95
2023/07/29 11:20:13;;;;;;;11.80;5.07;;;;;;;32.10;43.10;98572.22;4991848;28;20499;-93
2023/07/29 11:22:39;;;;;;;13.63;5.00;;;;;;;31.64;44.39;98559.28;4993331;28;20121;-93